Time;durP1;ratioP1;P1;durP2;ratioP2;P2;SDS_P1;SDS_P2;PMS_P1;PMS_P2;Temp;Humidity;BMP_temperature;BMP_pressure;BME280_temperature;BME280_humidity;BME280_pressure;Samples;Min_cycle;Max_cycle;Signal;HPM_P1;HPM_P2
2023/05/08 00:01:10;;;;;;;53.40;33.97;;;;;;;15.78;100.00;102003.81;4988127;28;20039;-74
2023/05/08 00:03:35;;;;;;;51.30;32.88;;;;;;;15.77;100.00;102005.63;4979388;28;20138;-73
2023/05/08 00:06:05;;;;;;;57.83;36.65;;;;;;;15.73;100.00;102004.09;4980504;28;20078;-74
2023/05/08 00:08:31;;;;;;;59.35;36.28;;;;;;;15.72;100.00;102005.06;4981143;28;20062;-74
2023/05/08 00:10:57;;;;;;;54.78;34.90;;;;;;;15.73;100.00;102008.63;4996294;28;20782;-73
2023/05/08 00:13:23;;;;;;;53.08;35.53;;;;;;;15.71;100.00;102014.13;4977831;28;20041;-72
2023/05/08 00:15:48;;;;;;;58.58;33.97;;;;;;;15.77;100.00;102013.69;4980513;28;20038;-72
2023/05/08 00:18:15;;;;;;;60.17;34.28;;;;;;;15.73;100.00;102005.94;4959511;28;20061;-72
2023/05/08 00:20:41;;;;;;;52.65;33.35;;;;;;;15.73;100.00;102001.41;4976702;28;20035;-72
2023/05/08 00:23:06;;;;;;;60.38;36.05;;;;;;;15.75;100.00;101999.47;4977288;28;20037;-71
2023/05/08 00:25:32;;;;;;;60.95;34.92;;;;;;;15.73;100.00;102014.00;4995926;28;20767;-72
2023/05/08 00:27:58;;;;;;;56.78;34.67;;;;;;;15.71;100.00;102013.22;4983084;28;20047;-72
2023/05/08 00:30:24;;;;;;;67.57;40.35;;;;;;;15.69;100.00;102002.56;4987362;28;20149;-73
2023/05/08 00:32:50;;;;;;;61.53;38.95;;;;;;;15.67;100.00;102003.66;4984380;28;20081;-74
2023/05/08 00:35:16;;;;;;;63.65;37.03;;;;;;;15.64;100.00;102003.84;4984358;28;20034;-72
2023/05/08 00:37:42;;;;;;;65.28;38.83;;;;;;;15.60;100.00;102010.34;4978569;28;20747;-73
2023/05/08 00:40:10;;;;;;;63.38;37.85;;;;;;;15.51;100.00;102015.41;4975155;28;20093;-73
2023/05/08 00:42:36;;;;;;;63.67;35.95;;;;;;;15.47;100.00;102007.63;4979173;28;20560;-72
2023/05/08 00:45:02;;;;;;;56.28;33.63;;;;;;;15.41;100.00;102008.88;4966191;28;20034;-72
2023/05/08 00:47:28;;;;;;;54.67;33.08;;;;;;;15.40;100.00;102011.66;4992088;28;20133;-72
2023/05/08 00:49:55;;;;;;;53.13;33.83;;;;;;;15.33;100.00;102008.50;5002667;28;20046;-72
2023/05/08 00:52:21;;;;;;;54.30;33.80;;;;;;;15.31;100.00;102005.03;4965937;28;20039;-72
2023/05/08 00:54:47;;;;;;;51.88;33.50;;;;;;;15.13;100.00;102001.72;4988273;28;20242;-71
2023/05/08 00:57:14;;;;;;;52.58;34.08;;;;;;;15.12;100.00;102001.84;4982175;28;20039;-72
2023/05/08 00:59:40;;;;;;;51.63;32.97;;;;;;;14.99;100.00;101996.38;4987675;28;20071;-73
2023/05/08 01:02:07;;;;;;;51.50;34.10;;;;;;;15.12;100.00;101996.47;4983338;28;20075;-72
2023/05/08 01:04:34;;;;;;;46.72;32.03;;;;;;;15.17;100.00;101999.72;4981861;28;20070;-72
2023/05/08 01:07:01;;;;;;;47.92;31.48;;;;;;;15.15;100.00;101998.94;4984339;28;20058;-73
2023/05/08 01:09:27;;;;;;;55.83;34.88;;;;;;;15.14;100.00;101997.22;4996936;28;20838;-73
2023/05/08 01:12:51;;;;;;;57.83;33.15;;;;;;;15.10;100.00;101998.38;4991980;28;20034;-72
2023/05/08 01:15:26;;;;;;;55.88;34.70;;;;;;;15.09;100.00;102002.03;4972735;28;20057;-73
2023/05/08 01:18:12;;;;;;;61.90;36.78;;;;;;;15.07;100.00;102004.81;4980374;28;20034;-72
2023/05/08 01:20:45;;;;;;;52.92;34.03;;;;;;;15.04;100.00;102007.69;4989529;28;20054;-72
2023/05/08 01:23:11;;;;;;;61.30;36.85;;;;;;;14.95;100.00;102006.44;4978695;28;20113;-72
2023/05/08 01:26:00;;;;;;;54.33;35.90;;;;;;;15.07;100.00;102006.66;4978151;28;20089;-72
2023/05/08 01:28:43;;;;;;;59.30;36.45;;;;;;;15.02;100.00;102005.09;4977978;28;20122;-73
2023/05/08 01:31:31;;;;;;;57.85;35.53;;;;;;;14.92;100.00;102000.41;4991663;28;20050;-73
2023/05/08 01:34:09;;;;;;;64.20;38.10;;;;;;;14.83;100.00;101996.47;4988699;28;20034;-71
2023/05/08 01:36:59;;;;;;;62.60;36.72;;;;;;;14.87;100.00;102007.91;4989136;28;20030;-71
2023/05/08 01:39:49;;;;;;;56.30;37.53;;;;;;;14.84;100.00;102008.09;4982270;28;20042;-72
2023/05/08 01:42:52;;;;;;;57.05;35.75;;;;;;;14.67;100.00;102001.94;4984428;28;20038;-72
2023/05/08 01:45:25;;;;;;;60.40;37.03;;;;;;;14.63;100.00;102002.22;4980124;28;20047;-72
2023/05/08 01:48:23;;;;;;;59.05;38.22;;;;;;;14.69;100.00;102000.03;4980915;28;20047;-72
2023/05/08 01:50:56;;;;;;;60.92;38.20;;;;;;;14.70;100.00;101999.06;4991875;28;20046;-72
2023/05/08 01:53:41;;;;;;;58.95;37.08;;;;;;;14.70;100.00;102000.88;4982260;28;20070;-73
2023/05/08 01:56:12;;;;;;;54.47;36.55;;;;;;;14.66;100.00;102002.03;4993522;28;20044;-72
2023/05/08 01:58:40;;;;;;;55.05;37.60;;;;;;;14.55;100.00;102000.00;4982836;28;20037;-71
2023/05/08 02:01:07;;;;;;;56.80;36.50;;;;;;;14.57;100.00;101999.94;4989605;28;20042;-71
2023/05/08 02:03:34;;;;;;;63.00;38.95;;;;;;;14.53;100.00;101988.50;4976765;28;20035;-72
2023/05/08 02:06:01;;;;;;;63.75;38.10;;;;;;;14.54;100.00;101989.38;4968515;28;20053;-74
2023/05/08 02:08:29;;;;;;;57.15;36.25;;;;;;;14.54;100.00;101997.44;4976052;28;20038;-74
2023/05/08 02:10:57;;;;;;;59.97;36.65;;;;;;;14.59;100.00;101998.00;4983859;28;20794;-72
2023/05/08 02:13:25;;;;;;;62.03;37.03;;;;;;;14.42;100.00;101999.00;4959309;28;20039;-72
2023/05/08 02:15:53;;;;;;;65.50;38.80;;;;;;;14.41;100.00;102006.22;4975929;28;20041;-72
2023/05/08 02:18:22;;;;;;;58.20;34.15;;;;;;;14.43;100.00;102003.41;4977028;28;20035;-73
2023/05/08 02:20:52;;;;;;;57.50;36.00;;;;;;;14.43;100.00;102000.75;4981339;28;20126;-71
2023/05/08 02:23:19;;;;;;;61.90;38.30;;;;;;;14.42;100.00;102009.75;4982013;28;20217;-72
2023/05/08 02:25:47;;;;;;;54.95;36.47;;;;;;;14.41;100.00;102011.56;4967569;28;20039;-73
2023/05/08 02:28:15;;;;;;;64.75;39.38;;;;;;;14.39;100.00;102020.66;4997288;28;20038;-72
2023/05/08 02:30:42;;;;;;;66.70;39.70;;;;;;;14.35;100.00;102011.91;4989168;28;20053;-72
2023/05/08 02:33:10;;;;;;;68.07;40.40;;;;;;;14.35;100.00;102019.09;4985048;28;20098;-72
2023/05/08 02:35:37;;;;;;;63.80;41.08;;;;;;;14.31;100.00;102020.25;4975420;28;20034;-74
2023/05/08 02:38:09;;;;;;;62.95;41.15;;;;;;;14.25;100.00;102016.97;4976029;28;20046;-73
2023/05/08 02:40:38;;;;;;;64.90;39.88;;;;;;;14.14;100.00;102016.75;4990207;28;20027;-72
2023/05/08 02:43:06;;;;;;;58.50;36.60;;;;;;;14.10;100.00;102014.34;4976477;28;20047;-73
2023/05/08 02:45:38;;;;;;;63.65;37.92;;;;;;;14.12;100.00;102020.50;4972286;28;20892;-73
2023/05/08 02:48:19;;;;;;;63.95;36.67;;;;;;;14.01;100.00;102015.78;4959425;28;20887;-73
2023/05/08 02:51:01;;;;;;;60.28;36.28;;;;;;;14.00;100.00;102017.56;4984791;28;20030;-73
2023/05/08 02:53:57;;;;;;;60.25;37.33;;;;;;;13.96;100.00;102013.38;4978869;28;20461;-74
2023/05/08 02:56:38;;;;;;;59.20;37.95;;;;;;;13.98;100.00;102015.94;4987954;28;20098;-72
2023/05/08 02:59:15;;;;;;;70.32;41.92;;;;;;;14.02;100.00;102011.28;4977923;28;20034;-73
2023/05/08 03:02:03;;;;;;;60.55;39.00;;;;;;;14.08;100.00;102009.09;4985287;28;20789;-73
2023/05/08 03:04:36;;;;;;;67.45;40.30;;;;;;;14.08;100.00;102018.94;4975609;28;20475;-73
2023/05/08 03:07:03;;;;;;;57.40;35.75;;;;;;;14.00;100.00;102004.16;4976003;28;20042;-74
2023/05/08 03:09:40;;;;;;;65.25;39.40;;;;;;;14.05;100.00;102006.56;4976758;28;20072;-73
2023/05/08 03:12:14;;;;;;;66.50;41.83;;;;;;;14.08;100.00;102005.53;4974609;28;20043;-74
2023/05/08 03:14:50;;;;;;;66.70;40.88;;;;;;;14.07;100.00;102010.03;4998854;28;20035;-72
2023/05/08 03:17:19;;;;;;;60.75;37.13;;;;;;;14.03;100.00;102005.81;4983971;28;20041;-73
2023/05/08 03:19:50;;;;;;;77.05;41.60;;;;;;;13.97;100.00;102004.38;4989703;28;20058;-72
2023/05/08 03:22:19;;;;;;;63.67;39.30;;;;;;;13.89;100.00;101998.56;4981145;28;20049;-73
2023/05/08 03:24:45;;;;;;;61.42;36.42;;;;;;;13.76;100.00;101997.59;4964586;28;20039;-72
2023/05/08 03:27:13;;;;;;;54.67;35.35;;;;;;;13.81;100.00;102000.00;4984294;28;20050;-73
2023/05/08 03:29:40;;;;;;;56.60;36.83;;;;;;;13.87;100.00;101999.63;4982702;28;20150;-73
2023/05/08 03:32:09;;;;;;;66.75;40.15;;;;;;;13.86;100.00;102001.47;4973821;28;20118;-72
2023/05/08 03:34:35;;;;;;;60.80;37.67;;;;;;;13.95;100.00;102002.72;4990239;28;21058;-73
2023/05/08 03:37:01;;;;;;;60.53;39.40;;;;;;;14.00;100.00;102001.47;4984648;28;20042;-72
2023/05/08 03:39:27;;;;;;;63.28;38.85;;;;;;;13.97;100.00;101998.13;4993417;28;20030;-71
2023/05/08 03:41:55;;;;;;;67.30;40.58;;;;;;;13.96;100.00;101993.72;4982488;28;20106;-73
2023/05/08 03:44:22;;;;;;;64.53;40.20;;;;;;;13.93;100.00;102002.81;4992007;28;20038;-72
2023/05/08 03:46:49;;;;;;;65.43;39.92;;;;;;;13.89;100.00;102000.41;4981700;28;20156;-72
2023/05/08 03:49:17;;;;;;;54.38;35.15;;;;;;;13.91;100.00;101988.63;4983039;28;20038;-72
2023/05/08 03:51:46;;;;;;;58.95;37.58;;;;;;;13.92;100.00;101995.72;4977181;28;21380;-72
2023/05/08 03:54:13;;;;;;;65.30;39.60;;;;;;;13.95;100.00;102002.72;4978743;28;20041;-71
2023/05/08 03:56:39;;;;;;;63.60;40.85;;;;;;;13.97;100.00;102006.19;4971462;28;20081;-71
2023/05/08 03:59:16;;;;;;;61.40;40.50;;;;;;;14.01;100.00;101999.69;4983274;28;20035;-72
2023/05/08 04:02:08;;;;;;;66.93;40.17;;;;;;;14.07;100.00;102006.50;4975223;28;20141;-73
2023/05/08 04:04:42;;;;;;;68.85;38.70;;;;;;;14.03;100.00;102005.81;4974330;28;20077;-73
2023/05/08 04:07:40;;;;;;;66.25;40.97;;;;;;;14.07;100.00;102009.19;4973338;28;20699;-73
2023/05/08 04:10:15;;;;;;;64.22;40.28;;;;;;;14.19;100.00;102011.13;4984525;28;20034;-73
2023/05/08 04:13:07;;;;;;;63.85;40.10;;;;;;;14.25;100.00;102016.13;4974155;28;20046;-73
2023/05/08 04:15:42;;;;;;;58.00;38.08;;;;;;;14.07;100.00;102004.69;4986705;28;20030;-73
2023/05/08 04:18:13;;;;;;;62.92;36.55;;;;;;;13.88;100.00;102004.91;4976275;28;20595;-75
2023/05/08 04:20:40;;;;;;;57.30;37.95;;;;;;;14.00;100.00;101997.94;4988578;28;20030;-73
2023/05/08 04:23:07;;;;;;;57.40;39.00;;;;;;;14.02;100.00;101992.50;4981101;28;20035;-74
2023/05/08 04:25:36;;;;;;;57.03;38.50;;;;;;;14.17;100.00;101994.28;4989485;28;21386;-73
2023/05/08 04:28:02;;;;;;;56.08;37.22;;;;;;;14.14;100.00;101995.31;4975446;28;20035;-74
2023/05/08 04:30:29;;;;;;;58.95;39.65;;;;;;;14.10;100.00;101990.22;4979593;28;20620;-74
2023/05/08 04:32:55;;;;;;;58.45;39.47;;;;;;;14.16;100.00;101997.91;4974016;28;20089;-72
2023/05/08 04:35:21;;;;;;;55.53;37.53;;;;;;;14.20;100.00;102002.13;4975690;28;20067;-74
2023/05/08 04:37:47;;;;;;;57.20;39.03;;;;;;;14.05;100.00;101997.66;4983585;28;21270;-74
2023/05/08 04:40:14;;;;;;;55.95;38.17;;;;;;;14.08;100.00;101989.44;4980385;28;20035;-72
2023/05/08 04:42:42;;;;;;;59.53;40.80;;;;;;;14.16;100.00;101990.72;4983396;28;20310;-71
2023/05/08 04:45:09;;;;;;;60.72;40.60;;;;;;;14.42;100.00;101980.22;4986140;28;20035;-71
2023/05/08 04:47:35;;;;;;;58.13;39.38;;;;;;;14.61;100.00;101980.84;4973947;28;20046;-71
2023/05/08 04:50:01;;;;;;;63.45;40.85;;;;;;;15.35;100.00;101984.22;4986094;28;20374;-71
2023/05/08 04:52:28;;;;;;;54.42;38.13;;;;;;;15.98;100.00;101975.56;4977514;28;20516;-72
2023/05/08 04:54:54;;;;;;;52.67;37.90;;;;;;;16.63;100.00;101967.44;4991988;28;20090;-73
2023/05/08 04:57:20;;;;;;;56.72;38.03;;;;;;;16.88;100.00;101971.09;4979020;28;20031;-74
2023/05/08 04:59:46;;;;;;;47.63;35.95;;;;;;;16.56;100.00;101980.44;4986639;28;20039;-73
2023/05/08 05:02:12;;;;;;;51.08;36.45;;;;;;;16.21;100.00;101980.22;4979212;28;20797;-74
2023/05/08 05:04:38;;;;;;;45.53;34.33;;;;;;;15.77;100.00;101976.03;4991792;28;20034;-73
2023/05/08 05:07:05;;;;;;;48.85;35.25;;;;;;;15.47;100.00;101992.34;4982935;28;20038;-74
2023/05/08 05:09:35;;;;;;;49.17;33.65;;;;;;;15.50;100.00;101993.97;4975385;28;20735;-72
2023/05/08 05:12:06;;;;;;;44.92;34.25;;;;;;;15.48;100.00;102002.13;4991136;28;20035;-74
2023/05/08 05:14:32;;;;;;;50.22;36.30;;;;;;;15.27;100.00;102004.41;4994048;28;20035;-72
2023/05/08 05:16:58;;;;;;;45.00;33.55;;;;;;;15.12;100.00;102017.97;4986806;28;20035;-73
2023/05/08 05:19:24;;;;;;;47.88;34.60;;;;;;;15.03;100.00;102014.03;4984881;28;20090;-73
2023/05/08 05:21:50;;;;;;;50.22;36.15;;;;;;;15.00;100.00;102012.38;4978951;28;20038;-73
2023/05/08 05:24:16;;;;;;;42.08;33.85;;;;;;;14.91;100.00;102013.00;4979514;28;20042;-73
2023/05/08 05:26:41;;;;;;;43.65;34.15;;;;;;;14.99;100.00;102016.03;4989021;28;20043;-71
2023/05/08 05:29:07;;;;;;;46.58;35.00;;;;;;;14.95;100.00;102019.00;4993955;28;20023;-73
2023/05/08 05:31:33;;;;;;;45.25;33.30;;;;;;;15.02;100.00;102028.44;5008017;28;20094;-72
2023/05/08 05:33:59;;;;;;;43.65;31.23;;;;;;;15.20;100.00;102027.25;4996081;28;20035;-72
2023/05/08 05:36:24;;;;;;;38.20;30.27;;;;;;;15.14;100.00;102032.16;4994796;28;20134;-72
2023/05/08 05:38:50;;;;;;;42.90;32.08;;;;;;;15.10;100.00;102028.78;4992100;28;20035;-72
2023/05/08 05:41:16;;;;;;;47.20;33.05;;;;;;;15.16;100.00;102025.72;4991745;28;21176;-73
2023/05/08 05:43:42;;;;;;;46.22;32.65;;;;;;;15.01;100.00;102027.56;4986535;28;20694;-73
2023/05/08 05:46:08;;;;;;;44.78;32.10;;;;;;;15.25;100.00;102029.63;4995555;28;20070;-72
2023/05/08 05:48:36;;;;;;;42.67;32.40;;;;;;;15.54;100.00;102033.13;4996256;28;20047;-74
2023/05/08 05:51:02;;;;;;;41.20;32.20;;;;;;;15.72;100.00;102023.91;4997277;28;20030;-73
2023/05/08 05:53:28;;;;;;;44.00;34.05;;;;;;;16.04;100.00;102018.19;4980528;28;20070;-70
2023/05/08 05:55:54;;;;;;;44.42;33.50;;;;;;;15.88;100.00;102023.75;4974830;28;20042;-72
2023/05/08 05:58:20;;;;;;;45.63;33.53;;;;;;;16.19;100.00;102030.59;4977601;28;20035;-72
2023/05/08 06:00:46;;;;;;;44.80;34.85;;;;;;;16.48;100.00;102020.53;4982528;28;20042;-73
2023/05/08 06:03:13;;;;;;;44.83;32.67;;;;;;;16.41;100.00;102027.28;5001747;28;20074;-73
2023/05/08 06:05:40;;;;;;;40.22;32.33;;;;;;;16.15;100.00;102030.91;4993430;28;20143;-71
2023/05/08 06:08:06;;;;;;;40.67;31.20;;;;;;;16.17;100.00;102032.56;4981285;28;20035;-74
2023/05/08 06:10:31;;;;;;;42.88;33.92;;;;;;;16.34;100.00;102022.44;4997055;28;20050;-72
2023/05/08 06:12:57;;;;;;;44.85;34.20;;;;;;;16.54;100.00;102021.94;4957467;28;20952;-72
2023/05/08 06:15:24;;;;;;;40.47;33.00;;;;;;;16.53;100.00;102025.59;4986290;28;20038;-74
2023/05/08 06:17:50;;;;;;;38.97;32.35;;;;;;;16.58;100.00;102024.31;4990594;28;20099;-71
2023/05/08 06:20:16;;;;;;;39.22;32.65;;;;;;;16.35;100.00;102029.56;4978744;28;20054;-72
2023/05/08 06:22:41;;;;;;;47.63;34.03;;;;;;;16.11;100.00;102032.94;4975806;28;20291;-72
2023/05/08 06:25:08;;;;;;;41.42;31.33;;;;;;;15.99;100.00;102031.09;4976214;28;20065;-73
2023/05/08 06:27:35;;;;;;;37.67;30.60;;;;;;;16.20;100.00;102031.47;4977266;28;20042;-74
2023/05/08 06:30:01;;;;;;;43.13;31.67;;;;;;;16.01;100.00;102042.59;4977992;28;20039;-73
2023/05/08 06:32:26;;;;;;;44.92;33.28;;;;;;;16.34;100.00;102042.16;4991534;28;20333;-73
2023/05/08 06:34:52;;;;;;;42.80;33.30;;;;;;;16.20;100.00;102036.84;4983795;28;20031;-73
2023/05/08 06:37:18;;;;;;;42.53;32.30;;;;;;;16.55;100.00;102045.19;4992248;28;20044;-74
2023/05/08 06:39:44;;;;;;;41.90;32.03;;;;;;;16.60;100.00;102036.78;4974929;28;20046;-74
2023/05/08 06:42:10;;;;;;;40.55;31.88;;;;;;;16.56;100.00;102044.22;4989371;28;21401;-74
2023/05/08 06:44:39;;;;;;;39.35;31.25;;;;;;;16.63;100.00;102036.59;4987439;28;20058;-74
2023/05/08 06:47:05;;;;;;;37.78;31.20;;;;;;;16.81;100.00;102038.00;4977700;28;20061;-75
2023/05/08 06:49:31;;;;;;;41.55;33.05;;;;;;;16.99;100.00;102036.72;4981136;28;20137;-74
2023/05/08 06:51:57;;;;;;;41.03;32.47;;;;;;;16.91;100.00;102038.22;4986324;28;20053;-73
2023/05/08 06:54:23;;;;;;;41.90;33.03;;;;;;;17.04;100.00;102039.09;4977670;28;20861;-73
2023/05/08 06:56:51;;;;;;;45.13;34.17;;;;;;;17.19;100.00;102035.28;4960434;28;20125;-74
2023/05/08 06:59:17;;;;;;;41.25;32.70;;;;;;;17.12;100.00;102041.22;4982413;28;20035;-74
2023/05/08 07:01:43;;;;;;;44.75;32.85;;;;;;;17.35;100.00;102033.19;4973744;28;20131;-72
2023/05/08 07:04:09;;;;;;;46.10;33.05;;;;;;;17.68;100.00;102030.84;4991202;28;20071;-73
2023/05/08 07:06:35;;;;;;;47.65;33.45;;;;;;;17.97;100.00;102032.25;4977469;28;20042;-72
2023/05/08 07:09:00;;;;;;;38.85;31.27;;;;;;;17.60;100.00;102026.00;4988113;28;20444;-73
2023/05/08 07:11:26;;;;;;;38.35;31.92;;;;;;;17.59;100.00;102030.53;4976959;28;20125;-72
2023/05/08 07:13:51;;;;;;;39.65;31.65;;;;;;;17.75;100.00;102030.28;4979797;28;20042;-73
2023/05/08 07:16:17;;;;;;;41.08;30.27;;;;;;;17.44;100.00;102028.13;4981640;28;20507;-74
2023/05/08 07:18:43;;;;;;;46.55;32.75;;;;;;;17.03;100.00;102035.53;4988585;28;20039;-74
2023/05/08 07:21:09;;;;;;;47.85;32.90;;;;;;;16.72;100.00;102044.06;4992301;28;20862;-74
2023/05/08 07:23:35;;;;;;;43.78;32.10;;;;;;;17.06;100.00;102037.13;4969363;28;20038;-73
2023/05/08 07:26:00;;;;;;;49.08;35.08;;;;;;;17.47;100.00;102033.25;4975349;28;21121;-72
2023/05/08 07:28:26;;;;;;;54.60;36.33;;;;;;;17.82;100.00;102030.69;4976518;28;20575;-72
2023/05/08 07:30:51;;;;;;;53.10;37.28;;;;;;;18.04;100.00;102033.50;4984166;28;20253;-73
2023/05/08 07:33:17;;;;;;;50.22;35.35;;;;;;;17.97;100.00;102044.84;4981167;28;20213;-72
2023/05/08 07:35:43;;;;;;;49.38;33.78;;;;;;;17.70;100.00;102040.53;4975369;28;20038;-75
2023/05/08 07:38:09;;;;;;;46.63;34.08;;;;;;;17.83;100.00;102043.22;4980257;28;20074;-73
2023/05/08 07:40:35;;;;;;;49.05;35.65;;;;;;;17.60;100.00;102032.25;4977130;28;20035;-75
2023/05/08 07:43:00;;;;;;;57.55;35.90;;;;;;;17.61;100.00;102039.38;4980620;28;20043;-72
2023/05/08 07:45:26;;;;;;;62.53;39.13;;;;;;;17.68;100.00;102042.50;4980321;28;20068;-75
2023/05/08 07:47:54;;;;;;;55.38;36.83;;;;;;;17.54;100.00;102040.81;4987596;28;20109;-73
2023/05/08 07:50:20;;;;;;;53.35;36.85;;;;;;;17.36;100.00;102042.13;4975245;28;20038;-72
2023/05/08 07:52:46;;;;;;;58.10;36.42;;;;;;;17.41;100.00;102036.41;4978425;28;20046;-74
2023/05/08 07:55:12;;;;;;;47.65;34.30;;;;;;;17.52;100.00;102036.47;4985593;28;20034;-71
2023/05/08 07:57:39;;;;;;;51.47;35.40;;;;;;;17.69;100.00;102030.72;4974334;28;20034;-75
2023/05/08 08:00:12;;;;;;;47.92;34.60;;;;;;;17.70;100.00;102032.44;4975120;28;20030;-72
2023/05/08 08:02:43;;;;;;;52.75;35.83;;;;;;;17.66;100.00;102033.63;4978567;28;20023;-72
2023/05/08 08:05:09;;;;;;;55.22;36.15;;;;;;;17.80;100.00;102035.34;4974932;28;20038;-74
2023/05/08 08:07:35;;;;;;;51.40;37.05;;;;;;;18.31;100.00;102035.06;4974081;28;20070;-74
2023/05/08 08:10:03;;;;;;;59.58;38.03;;;;;;;18.57;100.00;102031.19;4958005;28;20141;-71
2023/05/08 08:12:29;;;;;;;73.60;40.33;;;;;;;18.66;100.00;102028.75;4982945;28;20134;-75
2023/05/08 08:14:55;;;;;;;80.68;43.40;;;;;;;18.31;100.00;102027.81;4986981;28;20085;-75
2023/05/08 08:17:21;;;;;;;76.22;42.28;;;;;;;18.55;100.00;102027.75;4962954;28;20066;-71
2023/05/08 08:19:46;;;;;;;82.55;44.20;;;;;;;18.80;100.00;102032.13;4975526;28;20092;-74
2023/05/08 08:22:12;;;;;;;85.97;43.22;;;;;;;18.95;100.00;102032.75;4984177;28;20050;-74
2023/05/08 08:24:37;;;;;;;82.00;44.53;;;;;;;19.23;100.00;102042.22;4971777;28;20034;-73
2023/05/08 08:27:03;;;;;;;78.05;41.85;;;;;;;18.91;100.00;102043.94;4972428;28;20043;-73
2023/05/08 08:29:29;;;;;;;88.20;45.20;;;;;;;18.95;100.00;102038.16;4971646;28;20489;-74
2023/05/08 08:31:55;;;;;;;90.40;46.03;;;;;;;19.10;100.00;102041.47;4973038;28;20031;-74
2023/05/08 08:34:20;;;;;;;83.63;46.20;;;;;;;19.19;100.00;102048.84;4970945;28;20066;-74
2023/05/08 08:36:46;;;;;;;91.03;46.33;;;;;;;19.22;100.00;102048.59;4978123;28;20660;-74
2023/05/08 08:39:12;;;;;;;92.40;46.65;;;;;;;19.14;100.00;102042.97;4980759;28;20142;-73
2023/05/08 08:41:39;;;;;;;85.18;45.85;;;;;;;19.22;100.00;102048.59;4972150;28;20027;-74
2023/05/08 08:44:05;;;;;;;82.50;45.33;;;;;;;19.37;100.00;102044.63;4983225;28;20074;-74
2023/05/08 08:46:34;;;;;;;82.95;46.55;;;;;;;19.50;100.00;102036.41;4974838;28;20054;-74
2023/05/08 08:49:03;;;;;;;88.00;46.53;;;;;;;19.68;100.00;102034.06;4975601;28;20039;-74
2023/05/08 08:51:42;;;;;;;92.50;47.55;;;;;;;19.65;100.00;102026.19;4964930;28;20038;-75
2023/05/08 08:54:19;;;;;;;92.10;48.85;;;;;;;19.75;100.00;102029.84;4973771;28;20039;-74
2023/05/08 08:56:48;;;;;;;90.95;48.22;;;;;;;19.92;100.00;102020.31;4975633;28;20142;-72
2023/05/08 08:59:15;;;;;;;89.10;50.38;;;;;;;20.01;100.00;102021.38;4986268;28;20038;-71
2023/05/08 09:01:44;;;;;;;85.43;50.47;;;;;;;20.06;100.00;102020.00;4971423;28;20070;-73
2023/05/08 09:04:10;;;;;;;90.60;49.13;;;;;;;19.86;100.00;102020.81;4972799;28;20039;-71
2023/05/08 09:06:37;;;;;;;78.45;47.63;;;;;;;19.94;100.00;102010.22;4975947;28;20050;-72
2023/05/08 09:09:05;;;;;;;82.90;47.15;;;;;;;19.91;100.00;102005.91;4985033;28;20026;-72
2023/05/08 09:11:31;;;;;;;76.03;45.78;;;;;;;20.28;100.00;102001.91;4977370;28;20038;-74
2023/05/08 09:13:57;;;;;;;78.63;47.90;;;;;;;19.72;100.00;102008.44;4984295;28;20039;-73
2023/05/08 09:16:24;;;;;;;79.78;48.13;;;;;;;19.64;100.00;102019.06;4985056;28;20163;-74
2023/05/08 09:18:50;;;;;;;76.88;48.17;;;;;;;20.41;100.00;102003.44;4987039;28;20034;-73
2023/05/08 09:21:16;;;;;;;82.85;47.63;;;;;;;20.04;100.00;102005.75;4980214;28;20030;-74
2023/05/08 09:23:56;;;;;;;76.20;46.45;;;;;;;20.18;100.00;102002.72;4982547;28;20035;-71
2023/05/08 09:26:33;;;;;;;74.13;45.90;;;;;;;21.12;100.00;102008.09;4979140;28;20913;-73
2023/05/08 09:29:12;;;;;;;69.93;43.78;;;;;;;20.40;100.00;102007.13;4969498;28;20069;-72
2023/05/08 09:31:43;;;;;;;74.22;45.50;;;;;;;20.82;100.00;102008.97;4976823;28;20150;-73
2023/05/08 09:34:10;;;;;;;81.18;50.42;;;;;;;21.75;100.00;101997.00;4983113;28;20039;-72
2023/05/08 09:36:38;;;;;;;76.65;49.20;;;;;;;22.12;100.00;101989.00;4974332;28;20133;-73
2023/05/08 09:39:12;;;;;;;77.35;47.47;;;;;;;21.27;100.00;101993.16;4974446;28;20110;-73
2023/05/08 09:41:39;;;;;;;74.97;46.15;;;;;;;21.45;100.00;102005.09;4977645;28;20737;-72
2023/05/08 09:44:06;;;;;;;76.57;47.92;;;;;;;21.64;100.00;102007.00;4979494;28;20042;-71
2023/05/08 09:46:33;;;;;;;77.57;51.00;;;;;;;21.51;100.00;102005.53;4986503;28;20055;-73
2023/05/08 09:49:00;;;;;;;76.38;49.30;;;;;;;21.03;100.00;102015.19;4983060;28;20027;-71
2023/05/08 09:51:29;;;;;;;74.88;48.88;;;;;;;21.35;100.00;102008.78;4974966;28;20034;-73
2023/05/08 09:53:56;;;;;;;73.93;50.20;;;;;;;21.86;100.00;102015.88;4981508;28;20066;-72
2023/05/08 09:56:30;;;;;;;81.55;51.85;;;;;;;21.98;100.00;102012.00;4975776;28;20494;-72
2023/05/08 09:58:55;;;;;;;84.93;53.85;;;;;;;22.35;100.00;102005.88;4972342;28;20135;-72
2023/05/08 10:01:38;;;;;;;83.75;53.38;;;;;;;21.74;100.00;102012.44;4980763;28;20247;-73
2023/05/08 10:04:09;;;;;;;73.07;52.67;;;;;;;22.08;100.00;102007.41;4971671;28;20149;-72
2023/05/08 10:06:36;;;;;;;85.88;55.53;;;;;;;22.41;100.00;102003.41;4991978;28;20701;-73
2023/05/08 10:09:10;;;;;;;84.32;54.78;;;;;;;22.04;100.00;102006.00;4976593;28;20166;-73
2023/05/08 10:11:36;;;;;;;80.25;52.00;;;;;;;22.56;100.00;102003.81;4978145;28;20026;-73
2023/05/08 10:14:01;;;;;;;81.50;51.97;;;;;;;22.98;100.00;102004.25;4977108;28;20201;-71
2023/05/08 10:16:28;;;;;;;87.07;52.90;;;;;;;22.83;100.00;102004.88;4976413;28;20969;-73
2023/05/08 10:19:04;;;;;;;77.57;51.78;;;;;;;23.87;100.00;102006.34;4977111;28;20142;-71
2023/05/08 10:21:35;;;;;;;74.50;51.90;;;;;;;23.68;100.00;101999.16;4970871;28;20130;-73
2023/05/08 10:24:05;;;;;;;76.45;52.42;;;;;;;22.62;100.00;102000.50;4978546;28;20743;-72
2023/05/08 10:26:32;;;;;;;75.82;50.50;;;;;;;22.22;100.00;102000.72;4982364;28;20057;-71
2023/05/08 10:29:07;;;;;;;77.35;52.03;;;;;;;23.26;100.00;102002.41;4982235;28;20027;-70
2023/05/08 10:31:42;;;;;;;73.00;52.72;;;;;;;22.83;100.00;102003.00;4976327;28;20069;-72
2023/05/08 10:34:17;;;;;;;80.85;53.70;;;;;;;23.24;100.00;102009.88;4977587;28;20193;-73
2023/05/08 10:36:43;;;;;;;75.10;53.30;;;;;;;23.55;100.00;102004.09;4989420;28;20173;-72
2023/05/08 10:39:15;;;;;;;74.15;51.40;;;;;;;23.24;100.00;102011.72;4983422;28;20491;-72
2023/05/08 10:41:41;;;;;;;80.28;53.75;;;;;;;23.10;100.00;101998.66;4985126;28;20039;-71
2023/05/08 10:44:11;;;;;;;75.38;51.30;;;;;;;23.17;100.00;102003.31;4979716;28;20046;-72
2023/05/08 10:46:50;;;;;;;75.47;53.70;;;;;;;23.74;100.00;101989.50;4980561;28;20054;-72
2023/05/08 10:49:29;;;;;;;76.90;52.10;;;;;;;23.38;100.00;101997.59;4980056;28;20042;-71
2023/05/08 10:52:01;;;;;;;69.40;51.88;;;;;;;23.21;100.00;101993.00;4980423;28;20038;-72
2023/05/08 10:54:37;;;;;;;;;;;;;;;23.11;100.00;101997.63;4991054;28;20486;-72
2023/05/08 10:57:12;;;;;;;72.32;52.13;;;;;;;23.37;100.00;101986.88;5002012;28;20771;-72
2023/05/08 10:59:38;;;;;;;79.00;54.78;;;;;;;23.58;100.00;101982.00;4978560;28;20061;-73
2023/05/08 11:02:06;;;;;;;73.43;53.95;;;;;;;23.67;99.59;101993.88;4993404;28;20030;-72
2023/05/08 11:04:32;;;;;;;72.07;49.58;;;;;;;22.67;96.73;101991.91;4992153;28;20041;-73
2023/05/08 11:06:58;;;;;;;69.85;50.85;;;;;;;23.15;100.00;101994.47;4992246;28;20047;-72
2023/05/08 11:09:43;;;;;;;70.25;49.13;;;;;;;23.00;100.00;101998.69;4983817;28;20031;-71
2023/05/08 11:12:20;;;;;;;67.10;46.40;;;;;;;23.71;100.00;101993.41;4987919;28;20034;-72